Time;durP1;ratioP1;P1;durP2;ratioP2;P2;SDS_P1;SDS_P2;PMS_P1;PMS_P2;Temp;Humidity;BMP_temperature;BMP_pressure;BME280_temperature;BME280_humidity;BME280_pressure;Samples;Min_cycle;Max_cycle;Signal;HPM_P1;HPM_P2
2022/12/31 00:01:40;;;;;;;11.27;5.37;;;;;;;6.57;100.00;100106.28;5042618;57;1140932;-69
2022/12/31 00:06:47;;;;;;;15.20;5.60;;;;;;;6.52;100.00;100111.84;5062351;57;1138643;-70
2022/12/31 00:11:53;;;;;;;14.20;6.67;;;;;;;6.54;100.00;100099.91;5042658;57;1140772;-68
2022/12/31 00:16:59;;;;;;;10.97;6.53;;;;;;;6.53;100.00;100110.89;5040923;57;1138736;-66
2022/12/31 00:22:04;;;;;;;13.83;6.50;;;;;;;6.52;100.00;100106.58;5072976;56;1138947;-66
2022/12/31 00:27:10;;;;;;;15.10;6.33;;;;;;;6.57;100.00;100097.09;5126508;56;1140864;-69
2022/12/31 00:32:16;;;;;;;8.07;5.60;;;;;;;6.59;100.00;100090.75;5112198;56;1140964;-69
2022/12/31 00:37:23;;;;;;;16.16;7.84;;;;;;;6.59;100.00;100094.70;5092044;56;1136685;-71
2022/12/31 00:42:29;;;;;;;12.47;6.30;;;;;;;6.62;100.00;100083.98;5042027;57;1140790;-71
2022/12/31 00:47:34;;;;;;;13.97;6.83;;;;;;;6.65;100.00;100090.35;5098917;56;1140980;-69
2022/12/31 00:52:40;;;;;;;13.37;5.30;;;;;;;6.69;100.00;100094.45;5126926;56;1138905;-66
2022/12/31 00:57:45;;;;;;;14.67;6.47;;;;;;;6.77;100.00;100082.09;5146860;56;1140925;-67
2022/12/31 01:02:51;;;;;;;10.77;4.60;;;;;;;6.79;100.00;100098.60;5123376;56;1138755;-68
2022/12/31 01:07:57;;;;;;;8.67;4.13;;;;;;;6.83;100.00;100102.71;5042042;57;1138982;-69
2022/12/31 01:13:03;;;;;;;9.27;5.13;;;;;;;6.92;100.00;100075.78;5062038;57;1138684;-67
2022/12/31 01:18:11;;;;;;;10.37;5.03;;;;;;;7.00;100.00;100088.41;5039498;57;1138813;-70
2022/12/31 01:23:16;;;;;;;8.07;4.10;;;;;;;7.09;100.00;100077.70;5038001;57;1138785;-71
2022/12/31 01:28:22;;;;;;;6.77;4.60;;;;;;;7.21;100.00;100085.56;5057539;57;1138827;-68
2022/12/31 01:33:28;;;;;;;7.53;4.10;;;;;;;7.32;100.00;100080.87;5059532;56;1138776;-67
2022/12/31 01:38:35;;;;;;;6.35;3.72;;;;;;;7.41;100.00;100083.69;5037781;57;1138952;-68
2022/12/31 01:43:55;;;;;;;7.83;4.37;;;;;;;7.50;100.00;100096.64;5037979;57;1138727;-68
2022/12/31 01:49:27;;;;;;;6.33;3.10;;;;;;;7.55;100.00;100084.01;5138997;56;1138705;-72
2022/12/31 01:54:38;;;;;;;6.92;4.10;;;;;;;7.61;100.00;100086.21;5122231;56;1138731;-70
2022/12/31 01:59:45;;;;;;;11.07;3.47;;;;;;;7.71;100.00;100082.42;5122621;56;1138839;-70
2022/12/31 02:04:54;;;;;;;8.23;4.10;;;;;;;7.77;100.00;100081.99;5104446;56;1141084;-69
2022/12/31 02:10:00;;;;;;;8.87;4.77;;;;;;;7.87;100.00;100087.41;5037738;57;1138760;-68
2022/12/31 02:15:07;;;;;;;6.10;3.53;;;;;;;7.90;100.00;100099.05;5037852;57;1138869;-69
2022/12/31 02:20:55;;;;;;;6.27;3.73;;;;;;;7.96;100.00;100096.78;5057357;57;1138696;-68
2022/12/31 02:26:56;;;;;;;7.57;4.20;;;;;;;7.98;100.00;100106.73;5115866;56;1138738;-68
2022/12/31 02:32:14;;;;;;;7.93;4.30;;;;;;;8.01;100.00;100089.39;5111608;56;1138924;-66
2022/12/31 02:37:23;;;;;;;10.27;4.17;;;;;;;8.03;100.00;100078.28;5037603;57;1138727;-66
2022/12/31 02:42:30;;;;;;;4.10;3.40;;;;;;;8.02;100.00;100084.50;5053669;57;1144285;-69
2022/12/31 02:47:57;;;;;;;6.60;3.77;;;;;;;8.02;100.00;100096.82;5054253;57;1138883;-69
2022/12/31 02:53:21;;;;;;;5.47;2.80;;;;;;;8.07;100.00;100109.19;5037115;57;1138959;-68
2022/12/31 03:04:30;;;;;;;8.65;3.62;;;;;;;8.10;100.00;100101.03;5060357;56;1138915;-70
2022/12/31 03:09:14;;;;;;;6.27;3.30;;;;;;;8.10;100.00;100101.87;5137125;56;1138778;-69
2022/12/31 03:14:20;;;;;;;4.50;2.80;;;;;;;8.15;100.00;100108.13;5121896;56;1138664;-64
2022/12/31 03:30:15;;;;;;;4.67;4.17;;;;;;;8.44;100.00;100131.02;5146751;55;1138939;-64
2022/12/31 03:35:22;;;;;;;7.35;3.65;;;;;;;8.46;100.00;100110.19;5109280;56;1138776;-68
2022/12/31 03:40:30;;;;;;;3.63;2.90;;;;;;;8.54;100.00;100106.98;5107188;56;1138934;-68
2022/12/31 03:45:36;;;;;;;8.17;3.27;;;;;;;8.56;100.00;100108.16;5104319;56;1138929;-64
2022/12/31 03:50:42;;;;;;;4.85;3.50;;;;;;;8.54;100.00;100106.98;5062673;57;1138929;-68
2022/12/31 03:55:53;;;;;;;4.60;3.27;;;;;;;8.58;100.00;100126.86;5043267;57;1138928;-66
2022/12/31 04:00:59;;;;;;;3.50;2.47;;;;;;;8.62;100.00;100129.64;5064346;56;1138868;-66
2022/12/31 04:06:05;;;;;;;3.83;2.77;;;;;;;8.70;100.00;100126.44;5112169;56;1138917;-67
2022/12/31 04:11:11;;;;;;;4.13;2.60;;;;;;;8.72;100.00;100122.70;5112087;56;1138816;-67
2022/12/31 04:16:17;;;;;;;2.67;2.47;;;;;;;8.74;100.00;100126.06;5065730;56;1138830;-68
2022/12/31 04:21:23;;;;;;;4.47;3.00;;;;;;;8.73;100.00;100113.84;5076486;56;1138818;-64
2022/12/31 04:26:29;;;;;;;5.60;2.73;;;;;;;8.72;100.00;100122.70;5077029;56;1138756;-68
2022/12/31 04:31:36;;;;;;;5.97;2.22;;;;;;;8.69;100.00;100141.41;5078148;56;1138674;-67
2022/12/31 04:36:41;;;;;;;7.15;3.85;;;;;;;8.72;100.00;100137.67;5079957;56;1138795;-66
2022/12/31 04:41:47;;;;;;;9.80;2.50;;;;;;;8.75;100.00;100125.11;5098065;56;1138878;-64
2022/12/31 04:46:53;;;;;;;4.73;2.97;;;;;;;8.79;100.00;100111.22;5067414;56;1138693;-67
2022/12/31 04:51:59;;;;;;;7.00;3.37;;;;;;;8.86;100.00;100118.20;5043896;56;1139122;-70
2022/12/31 04:57:05;;;;;;;3.57;2.60;;;;;;;8.91;100.00;100131.37;5108893;56;1139145;-66
2022/12/31 05:02:12;;;;;;;6.90;2.70;;;;;;;8.92;100.00;100127.77;5102277;56;1138696;-65
2022/12/31 05:07:18;;;;;;;3.17;2.40;;;;;;;8.92;100.00;100125.62;5062219;56;1138830;-70
2022/12/31 05:12:24;;;;;;;4.80;3.10;;;;;;;8.92;100.00;100127.77;5141363;56;1138827;-66
2022/12/31 05:17:30;;;;;;;4.83;2.93;;;;;;;8.91;100.00;100126.57;5122336;56;1138820;-69
2022/12/31 05:22:36;;;;;;;3.77;3.10;;;;;;;8.92;100.00;100123.82;5122471;56;1138790;-69
2022/12/31 05:27:43;;;;;;;3.72;2.83;;;;;;;8.92;100.00;100115.91;5051452;56;1138945;-70
2022/12/31 05:32:49;;;;;;;4.73;2.77;;;;;;;8.93;100.00;100124.66;5042795;57;1138677;-70
2022/12/31 05:37:56;;;;;;;3.15;2.85;;;;;;;8.97;100.00;100123.00;4963398;56;1138862;-71
2022/12/31 05:43:03;;;;;;;3.40;2.80;;;;;;;8.97;100.00;100128.75;4963556;57;1138867;-67
2022/12/31 05:48:09;;;;;;;4.20;3.63;;;;;;;8.95;100.00;100133.30;4982800;57;1138859;-71
2022/12/31 05:53:15;;;;;;;6.67;2.37;;;;;;;8.89;100.00;100129.33;4963454;58;1139280;-71
2022/12/31 05:58:20;;;;;;;4.17;2.80;;;;;;;8.83;100.00;100135.09;4963457;58;1138725;-68
2022/12/31 06:03:26;;;;;;;5.20;3.30;;;;;;;8.80;100.00;100142.75;4996025;57;1138938;-70
2022/12/31 06:08:32;;;;;;;4.50;3.00;;;;;;;8.79;100.00;100150.77;5045710;57;1138709;-70
2022/12/31 06:13:38;;;;;;;4.00;2.60;;;;;;;8.84;100.00;100138.56;5044676;57;1194889;-69
2022/12/31 06:18:46;;;;;;;5.12;3.05;;;;;;;8.91;100.00;100148.51;4993755;57;1138946;-70
2022/12/31 06:23:52;;;;;;;7.07;3.80;;;;;;;8.95;100.00;100139.41;5003860;57;1138786;-67
2022/12/31 06:28:58;;;;;;;2.73;2.03;;;;;;;9.06;100.00;100134.63;5111160;56;1138829;-67
2022/12/31 06:34:05;;;;;;;4.70;2.57;;;;;;;9.09;100.00;100130.44;5063512;56;1138776;-70
2022/12/31 06:39:10;;;;;;;5.87;3.07;;;;;;;9.07;100.00;100146.86;4963564;57;1138680;-67
2022/12/31 06:44:16;;;;;;;3.20;2.90;;;;;;;9.09;100.00;100151.06;4963331;57;1160886;-69
2022/12/31 06:49:22;;;;;;;3.37;3.07;;;;;;;9.10;100.00;100145.30;4981486;57;1226057;-68
2022/12/31 06:54:28;;;;;;;3.90;2.30;;;;;;;9.09;100.00;100147.58;4963264;58;1138721;-72
2022/12/31 06:59:34;;;;;;;3.17;2.73;;;;;;;9.08;100.00;100130.91;4963175;58;1138783;-67
2022/12/31 07:05:14;;;;;;;4.13;2.90;;;;;;;9.06;100.00;100125.39;4963761;58;1138912;-68
2022/12/31 07:10:33;;;;;;;6.00;3.37;;;;;;;9.02;100.00;100128.73;4982843;58;1138639;-68
2022/12/31 07:16:06;;;;;;;9.68;2.50;;;;;;;9.04;100.00;100113.63;4958873;58;1138704;-67
2022/12/31 07:21:15;;;;;;;17.10;3.33;;;;;;;9.05;100.00;100103.92;4961218;58;1245119;-70
2022/12/31 07:26:54;;;;;;;50.07;4.60;;;;;;;9.05;100.00;100098.65;5148553;56;1141060;-70
2022/12/31 07:32:04;;;;;;;4.40;2.57;;;;;;;9.06;100.00;100110.41;5027535;57;1182796;-68
2022/12/31 07:37:33;;;;;;;3.10;2.30;;;;;;;9.04;100.00;100134.73;5039252;57;1245157;-67
2022/12/31 07:43:05;;;;;;;2.47;2.10;;;;;;;9.04;100.00;100141.33;5034207;57;1253970;-68
2022/12/31 07:48:23;;;;;;;2.47;1.93;;;;;;;9.05;100.00;100152.25;5062480;57;1138976;-69
2022/12/31 07:53:29;;;;;;;3.03;2.80;;;;;;;9.06;100.00;100133.30;5039624;57;1138819;-69
2022/12/31 07:59:01;;;;;;;2.10;1.90;;;;;;;9.10;100.00;100130.31;5040681;57;1252162;-71
2022/12/31 08:04:21;;;;;;;3.70;2.43;;;;;;;9.16;100.00;100131.65;5065059;56;1253310;-70
2022/12/31 08:10:11;;;;;;;20.70;3.10;;;;;;;9.23;100.00;100131.99;5103130;56;1138960;-69
2022/12/31 08:15:20;;;;;;;10.20;1.98;;;;;;;9.28;100.00;100129.37;5017466;57;1140896;-68
2022/12/31 08:20:29;;;;;;;3.67;2.23;;;;;;;9.38;100.00;100136.91;5041641;57;1140916;-69
2022/12/31 08:26:08;;;;;;;1.87;1.77;;;;;;;9.45;100.00;100141.24;5113463;56;1138881;-69
2022/12/31 08:31:24;;;;;;;2.77;2.03;;;;;;;9.49;100.00;100142.66;5147236;56;1138773;-69
2022/12/31 08:36:46;;;;;;;2.07;1.80;;;;;;;9.52;100.00;100156.45;5099061;56;1138866;-70
2022/12/31 08:41:55;;;;;;;2.87;2.17;;;;;;;9.50;100.00;100150.45;5114438;56;1138833;-70
2022/12/31 08:47:28;;;;;;;5.15;3.12;;;;;;;9.41;100.00;100133.20;5079241;56;1138817;-67
2022/12/31 08:52:34;;;;;;;3.30;2.93;;;;;;;9.33;100.00;100102.59;5026785;57;1138940;-70
2022/12/31 08:58:20;;;;;;;2.63;2.43;;;;;;;9.28;100.00;100096.86;5049486;56;1138995;-71
2022/12/31 09:03:57;;;;;;;5.58;3.62;;;;;;;9.30;100.00;100099.74;5050848;56;1138852;-66
2022/12/31 09:09:13;;;;;;;5.93;3.83;;;;;;;9.30;100.00;100099.74;5061176;55;1138997;-68
2022/12/31 09:14:36;;;;;;;3.57;3.17;;;;;;;9.32;100.00;100107.03;5064416;56;1138628;-70
2022/12/31 09:19:42;;;;;;;42.30;22.20;;;;;;;9.38;100.00;100089.41;5047301;56;1139026;-70
2022/12/31 09:24:48;;;;;;;18.77;8.23;;;;;;;9.49;100.00;100072.22;5079252;56;1143070;-70
2022/12/31 09:30:10;;;;;;;43.98;13.95;;;;;;;9.59;100.00;100091.30;5046223;56;1141111;-68
2022/12/31 09:35:48;;;;;;;27.60;12.07;;;;;;;9.69;100.00;100079.86;5038491;56;1142923;-69
2022/12/31 09:41:17;;;;;;;24.57;10.13;;;;;;;9.79;100.00;100091.83;5035041;57;1143233;-66
2022/12/31 09:46:31;;;;;;;33.90;13.10;;;;;;;9.88;100.00;100088.47;5067381;56;1143064;-70
2022/12/31 09:52:04;;;;;;;;;;;;;;;9.95;100.00;100061.88;5050575;56;1143253;-70
2022/12/31 09:57:37;;;;;;;53.87;19.90;;;;;;;10.04;100.00;100062.47;5098797;56;984646;-68
2022/12/31 10:03:09;;;;;;;36.63;11.50;;;;;;;10.14;100.00;100061.21;4998946;56;1143163;-67
2022/12/31 10:08:43;;;;;;;54.35;17.48;;;;;;;10.25;100.00;100052.41;5081203;56;1145072;-69
2022/12/31 10:14:38;;;;;;;49.10;14.30;;;;;;;10.38;100.00;100051.77;4999749;56;1145197;-71
2022/12/31 10:20:07;;;;;;;8.23;4.50;;;;;;;10.58;100.00;100046.93;5074937;56;1144999;-68
2022/12/31 10:25:30;;;;;;;10.40;4.55;;;;;;;10.84;100.00;100049.53;5055963;56;1140958;-70
2022/12/31 10:30:38;;;;;;;5.27;3.50;;;;;;;11.09;100.00;100045.58;5058499;56;1143140;-70
2022/12/31 10:36:14;;;;;;;10.33;4.07;;;;;;;11.33;100.00;100040.41;5078075;56;1141087;-69
2022/12/31 10:41:48;;;;;;;8.73;5.07;;;;;;;11.53;100.00;100015.17;5068670;56;1142941;-72
2022/12/31 10:47:30;;;;;;;11.65;6.37;;;;;;;11.83;100.00;100025.34;5061169;56;1141059;-67
2022/12/31 10:53:03;;;;;;;1.75;1.55;;;;;;;12.05;100.00;100004.35;5051841;56;1143820;-69
2022/12/31 10:58:41;;;;;;;2.83;1.70;;;;;;;12.35;100.00;99986.09;5062296;56;1140807;-72
2022/12/31 11:04:03;;;;;;;12.50;7.58;;;;;;;12.57;100.00;99996.34;5050158;56;1138802;-72
2022/12/31 11:09:38;;;;;;;7.93;3.20;;;;;;;12.74;100.00;99980.16;5065037;56;1141169;-67
2022/12/31 11:15:08;;;;;;;5.13;4.33;;;;;;;12.85;100.00;99987.44;5108128;56;1139092;-66
2022/12/31 11:20:31;;;;;;;6.30;4.20;;;;;;;12.94;100.00;99998.52;5094112;56;1138730;-69
2022/12/31 11:26:00;;;;;;;8.40;5.13;;;;;;;13.23;100.00;99975.83;5104209;56;1138911;-66
2022/12/31 11:31:59;;;;;;;8.20;4.60;;;;;;;13.23;100.00;99975.83;5131079;56;1139073;-72
2022/12/31 11:37:29;;;;;;;15.33;4.07;;;;;;;13.49;100.00;99987.88;4790826;59;1139098;-68
2022/12/31 11:43:13;;;;;;;8.93;3.10;;;;;;;13.72;100.00;99973.17;4946569;57;1140919;-71
2022/12/31 11:48:54;;;;;;;2.17;1.70;;;;;;;13.88;100.00;99978.29;5072928;56;1138978;-66
2022/12/31 11:54:26;;;;;;;13.77;5.67;;;;;;;13.86;100.00;99978.44;5111489;56;1139280;-69
2022/12/31 11:59:32;;;;;;;15.67;7.93;;;;;;;13.85;100.00;99968.80;5039244;56;1141370;-70
2022/12/31 12:04:39;;;;;;;7.12;3.02;;;;;;;13.87;100.00;99965.98;5077717;56;1140863;-72
2022/12/31 12:09:46;;;;;;;8.70;4.27;;;;;;;13.90;100.00;99968.34;5055506;56;1139071;-71
2022/12/31 12:14:55;;;;;;;12.10;4.97;;;;;;;13.95;100.00;99974.02;5059769;56;1138916;-70
2022/12/31 12:20:05;;;;;;;8.53;3.57;;;;;;;14.00;100.00;99971.25;5068104;56;1140867;-70
2022/12/31 12:25:18;;;;;;;5.73;3.50;;;;;;;14.05;100.00;99974.25;5066917;56;1138845;-70
2022/12/31 12:30:27;;;;;;;7.70;4.55;;;;;;;14.14;100.00;99973.00;5110434;56;1138792;-71
2022/12/31 12:35:35;;;;;;;14.80;5.13;;;;;;;14.30;100.00;99973.13;5003745;57;1139052;-68
2022/12/31 12:40:42;;;;;;;7.97;4.07;;;;;;;14.39;100.00;99958.86;5050457;56;1140967;-70
2022/12/31 12:45:49;;;;;;;9.77;5.20;;;;;;;14.53;100.00;99969.45;5004355;56;1138880;-70
2022/12/31 12:50:55;;;;;;;10.60;4.67;;;;;;;14.77;100.00;99970.93;5005124;56;1138859;-68
2022/12/31 12:56:21;;;;;;;7.70;3.83;;;;;;;14.98;100.00;99971.83;4955845;57;1140947;-71
2022/12/31 13:01:44;;;;;;;7.03;4.93;;;;;;;14.87;100.00;99979.63;4975573;57;1138938;-68
2022/12/31 13:07:26;;;;;;;11.83;8.10;;;;;;;14.68;100.00;99964.72;5035767;56;1139109;-68
2022/12/31 13:12:40;;;;;;;9.47;5.03;;;;;;;14.59;100.00;99971.00;5083870;56;1140890;-71
2022/12/31 13:17:50;;;;;;;17.37;5.80;;;;;;;14.58;100.00;99991.95;5032563;56;1139058;-70
2022/12/31 13:23:26;;;;;;;7.13;3.47;;;;;;;14.62;100.00;99977.84;5056330;56;1140885;-70
2022/12/31 13:28:33;;;;;;;9.20;5.50;;;;;;;14.72;100.00;99981.20;5072524;56;1138836;-70
2022/12/31 13:33:43;;;;;;;8.90;3.33;;;;;;;14.77;100.00;99987.73;5073467;56;1138911;-68
2022/12/31 13:38:55;;;;;;;2.42;2.22;;;;;;;14.77;100.00;99998.88;5072399;56;1138942;-68
2022/12/31 13:44:17;;;;;;;3.43;3.13;;;;;;;14.79;100.00;100015.53;5121368;56;1138825;-70
2022/12/31 13:49:30;;;;;;;7.63;3.17;;;;;;;14.79;100.00;100011.55;5055988;56;1141787;-70
2022/12/31 13:54:54;;;;;;;13.60;6.90;;;;;;;14.81;100.00;100013.55;5068260;56;1140889;-68
2022/12/31 14:00:05;;;;;;;4.95;3.52;;;;;;;14.82;100.00;100019.19;5063580;56;1142989;-67
2022/12/31 14:05:26;;;;;;;3.35;2.55;;;;;;;14.77;100.00;100015.69;5064172;56;1140854;-71
2022/12/31 14:10:42;;;;;;;4.67;2.80;;;;;;;14.77;100.00;100006.87;5068583;56;1140872;-69
2022/12/31 14:15:58;;;;;;;20.77;11.30;;;;;;;14.77;100.00;100006.37;5077240;56;1140944;-69
2022/12/31 14:21:26;;;;;;;9.55;6.65;;;;;;;14.75;100.00;100005.69;5077278;56;1145329;-69
2022/12/31 14:26:36;;;;;;;9.70;5.80;;;;;;;14.76;100.00;100021.17;5037834;56;1140863;-72
2022/12/31 14:32:18;;;;;;;11.28;5.37;;;;;;;14.74;100.00;100014.67;5037228;56;1140834;-71
2022/12/31 14:37:58;;;;;;;12.33;5.00;;;;;;;14.72;100.00;100019.80;5081250;56;1142863;-67
2022/12/31 14:43:14;;;;;;;6.33;3.83;;;;;;;14.71;100.00;100015.47;5044453;56;1143013;-69
2022/12/31 14:48:33;;;;;;;4.40;3.62;;;;;;;14.70;100.00;100027.95;5095246;56;1140929;-68
2022/12/31 14:53:40;;;;;;;7.07;5.47;;;;;;;14.73;100.00;100046.77;5121949;56;1141015;-67
2022/12/31 14:58:56;;;;;;;5.83;4.23;;;;;;;14.76;100.00;100061.94;5110176;56;1140951;-68
2022/12/31 15:04:02;;;;;;;4.78;2.65;;;;;;;14.78;100.00;100066.61;5097621;56;1141040;-72
2022/12/31 15:09:18;;;;;;;8.45;3.90;;;;;;;14.88;100.00;100063.00;5013677;57;1140795;-70
2022/12/31 15:15:04;;;;;;;6.43;3.50;;;;;;;14.98;100.00;100071.20;4977993;58;1140800;-72
2022/12/31 15:20:28;;;;;;;8.27;4.10;;;;;;;15.06;100.00;100064.60;4969508;57;1140849;-69
2022/12/31 15:25:38;;;;;;;5.27;3.50;;;;;;;15.15;100.00;100065.47;5042737;56;1140798;-67
2022/12/31 15:30:49;;;;;;;3.90;2.67;;;;;;;15.18;100.00;100074.97;5023891;57;1140937;-73
2022/12/31 15:35:57;;;;;;;4.27;3.43;;;;;;;15.23;100.00;100066.84;5043869;57;1147503;-67
2022/12/31 15:41:28;;;;;;;3.83;2.92;;;;;;;15.26;100.00;100071.03;4976574;57;1141049;-72
2022/12/31 15:46:38;;;;;;;9.20;5.83;;;;;;;15.27;100.00;100075.36;4813608;59;1141076;-69
2022/12/31 15:51:54;;;;;;;19.93;9.03;;;;;;;15.26;100.00;100079.86;4831043;59;1141011;-73
2022/12/31 15:57:00;;;;;;;23.62;15.80;;;;;;;15.25;100.00;100074.69;4815087;59;1143129;-71
2022/12/31 16:02:13;;;;;;;20.80;12.73;;;;;;;15.17;100.00;100081.29;4791506;59;1145145;-70
2022/12/31 16:07:19;;;;;;;11.43;8.33;;;;;;;15.13;100.00;100092.26;4861346;59;1145129;-71
2022/12/31 16:12:30;;;;;;;15.00;6.60;;;;;;;15.11;100.00;100089.44;4895397;58;1143082;-73
2022/12/31 16:17:38;;;;;;;11.40;6.70;;;;;;;15.08;100.00;100096.41;4875441;58;1143177;-70
2022/12/31 16:22:44;;;;;;;10.95;8.90;;;;;;;15.02;100.00;100111.17;4948982;57;1142957;-71
2022/12/31 16:27:52;;;;;;;7.80;4.30;;;;;;;15.04;100.00;100115.86;5025498;57;1142858;-71
2022/12/31 16:33:05;;;;;;;6.50;4.35;;;;;;;14.99;100.00;100111.48;5009037;56;1140893;-69
2022/12/31 16:38:19;;;;;;;5.92;4.00;;;;;;;14.97;100.00;100112.14;4985016;56;1141025;-68
2022/12/31 16:43:42;;;;;;;9.37;5.10;;;;;;;14.95;100.00;100136.78;5026371;56;1141003;-68
2022/12/31 16:49:04;;;;;;;5.80;3.85;;;;;;;14.92;100.00;100136.25;5008068;57;1140816;-70
2022/12/31 16:54:19;;;;;;;13.48;9.50;;;;;;;14.90;100.00;100148.88;5006727;57;1140760;-70
2022/12/31 16:59:41;;;;;;;8.30;3.77;;;;;;;14.84;100.00;100147.67;5031791;57;1142855;-70
2022/12/31 17:04:51;;;;;;;6.53;3.97;;;;;;;14.83;100.00;100157.14;5002995;57;1140786;-71
2022/12/31 17:10:22;;;;;;;9.80;3.50;;;;;;;14.82;100.00;100160.30;5005267;57;1140955;-68
2022/12/31 17:15:41;;;;;;;6.77;4.00;;;;;;;14.76;100.00;100171.58;5079342;56;1140952;-69
2022/12/31 17:20:50;;;;;;;5.53;3.60;;;;;;;14.73;100.00;100162.56;5070740;56;1141103;-70
2022/12/31 17:26:19;;;;;;;7.67;4.13;;;;;;;14.64;100.00;100174.98;5067758;56;1140869;-71
2022/12/31 17:31:38;;;;;;;6.23;4.00;;;;;;;14.64;100.00;100174.98;5070051;56;1140845;-69
2022/12/31 17:36:57;;;;;;;13.00;7.60;;;;;;;14.58;100.00;100176.91;5060852;56;1140776;-69
2022/12/31 17:42:03;;;;;;;8.00;4.67;;;;;;;14.56;100.00;100175.39;5054198;56;1142867;-69
2022/12/31 17:47:17;;;;;;;8.65;5.12;;;;;;;14.51;100.00;100189.17;5068372;56;1140874;-71
2022/12/31 17:52:19;;;;;;;11.67;6.00;;;;;;;14.49;100.00;100205.78;5074850;56;1140907;-68
2022/12/31 17:57:28;;;;;;;11.03;7.47;;;;;;;14.42;100.00;100210.02;5064556;56;1143143;-73
2022/12/31 18:02:34;;;;;;;10.68;5.50;;;;;;;14.35;100.00;100193.81;5091736;56;1142938;-71
2022/12/31 18:07:41;;;;;;;10.23;5.30;;;;;;;14.36;100.00;100201.30;5062321;57;1142928;-68
2022/12/31 18:12:49;;;;;;;6.40;4.00;;;;;;;14.32;100.00;100198.10;5042394;57;1142943;-70
2022/12/31 18:17:55;;;;;;;17.30;8.03;;;;;;;14.28;100.00;100202.53;4953420;58;1140879;-68
2022/12/31 18:23:01;;;;;;;10.87;5.40;;;;;;;14.28;100.00;100215.83;5077863;56;1142993;-70
2022/12/31 18:28:08;;;;;;;10.32;5.12;;;;;;;14.23;100.00;100204.30;5044846;56;1143143;-73
2022/12/31 18:33:21;;;;;;;11.20;5.43;;;;;;;14.25;100.00;100191.70;5034532;56;1143138;-73
2022/12/31 18:38:23;;;;;;;11.07;5.73;;;;;;;14.26;100.00;100200.02;5148724;56;1142945;-71
2022/12/31 18:43:29;;;;;;;12.93;4.83;;;;;;;14.25;100.00;100191.70;5054302;56;1142944;-72
2022/12/31 18:48:35;;;;;;;13.93;6.40;;;;;;;14.25;100.00;100185.05;5046266;56;1142843;-69
2022/12/31 18:53:40;;;;;;;7.43;3.37;;;;;;;14.28;100.00;100170.12;5129650;56;1143159;-72
2022/12/31 18:58:48;;;;;;;8.40;4.17;;;;;;;14.30;100.00;100172.63;5149974;56;1140783;-71
2022/12/31 19:03:55;;;;;;;7.53;4.80;;;;;;;14.32;100.00;100178.15;5065914;56;1140853;-68
2022/12/31 19:09:01;;;;;;;12.07;4.83;;;;;;;14.36;100.00;100184.81;5045765;56;1140862;-69
2022/12/31 19:14:24;;;;;;;12.00;5.10;;;;;;;14.38;100.00;100200.14;5069459;56;1142982;-68
2022/12/31 19:19:30;;;;;;;7.63;4.57;;;;;;;14.39;100.00;100212.45;5129248;56;1142925;-72
2022/12/31 19:24:36;;;;;;;8.30;4.83;;;;;;;14.41;100.00;100206.53;5126489;56;1140916;-69
2022/12/31 19:29:42;;;;;;;7.80;3.97;;;;;;;14.41;100.00;100209.19;5127256;56;1140829;-71
2022/12/31 19:34:48;;;;;;;10.13;4.10;;;;;;;14.46;100.00;100210.56;5147564;56;1140906;-71
2022/12/31 19:39:53;;;;;;;10.20;6.33;;;;;;;14.45;100.00;100187.11;5127306;56;1142901;-69
2022/12/31 19:44:59;;;;;;;16.63;7.83;;;;;;;14.48;100.00;100189.97;5114284;56;1143131;-69
2022/12/31 19:50:05;;;;;;;9.15;4.80;;;;;;;14.48;100.00;100188.14;5062327;56;1142857;-71
2022/12/31 19:55:15;;;;;;;8.20;4.15;;;;;;;14.49;100.00;100192.48;5042921;57;1140853;-71
2022/12/31 20:00:21;;;;;;;9.97;5.00;;;;;;;14.47;100.00;100201.59;5042278;57;1140797;-71
2022/12/31 20:05:27;;;;;;;12.13;5.93;;;;;;;14.47;100.00;100204.26;5062767;56;1141006;-72
2022/12/31 20:10:33;;;;;;;7.40;4.00;;;;;;;14.51;100.00;100201.64;5071581;56;1143109;-67
2022/12/31 20:15:46;;;;;;;4.67;3.17;;;;;;;14.56;100.00;100188.70;5096874;56;1140995;-67
2022/12/31 20:20:49;;;;;;;10.93;3.67;;;;;;;14.59;100.00;100204.37;4956997;57;1141087;-71
2022/12/31 20:25:59;;;;;;;8.23;3.43;;;;;;;14.63;100.00;100215.06;5074839;56;1142911;-71
2022/12/31 20:31:14;;;;;;;8.88;4.15;;;;;;;14.66;100.00;100205.44;5063170;56;1141014;-71
2022/12/31 20:36:21;;;;;;;8.60;4.20;;;;;;;14.69;100.00;100197.13;5145721;56;1140884;-70
2022/12/31 20:41:26;;;;;;;7.13;3.57;;;;;;;14.70;100.00;100206.79;5127535;56;1140979;-68
2022/12/31 20:46:32;;;;;;;11.87;4.90;;;;;;;14.71;100.00;100212.45;5127543;56;1140860;-68
2022/12/31 20:51:38;;;;;;;6.25;3.95;;;;;;;14.71;100.00;100221.77;5088303;56;1142902;-70
2022/12/31 20:56:44;;;;;;;9.10;3.50;;;;;;;14.73;100.00;100231.28;5062563;57;1140896;-72
2022/12/31 21:01:50;;;;;;;8.73;3.43;;;;;;;14.74;100.00;100234.30;5042655;57;1140735;-72
2022/12/31 21:06:55;;;;;;;7.80;3.10;;;;;;;14.72;100.00;100216.30;5043385;56;1140941;-69
2022/12/31 21:17:25;;;;;;;8.00;4.53;;;;;;;14.69;100.00;100219.26;5084602;56;1141032;-71
2022/12/31 21:22:32;;;;;;;5.03;2.73;;;;;;;14.66;100.00;100219.59;5116393;56;1140969;-72
2022/12/31 21:27:38;;;;;;;13.13;4.60;;;;;;;14.65;100.00;100212.59;5130054;56;1141063;-69
2022/12/31 21:32:44;;;;;;;15.67;6.00;;;;;;;14.65;100.00;100224.57;5098374;56;1143203;-72
2022/12/31 21:37:49;;;;;;;6.43;3.67;;;;;;;14.63;100.00;100231.87;5107190;56;1142884;-71
2022/12/31 21:42:55;;;;;;;9.77;3.60;;;;;;;14.61;100.00;100234.33;5104117;56;1140704;-70
2022/12/31 21:48:20;;;;;;;7.17;3.50;;;;;;;14.57;100.00;100247.09;5066096;56;1150353;-73
2022/12/31 21:53:26;;;;;;;8.53;3.30;;;;;;;14.57;100.00;100242.27;5045417;57;1140985;-72
2022/12/31 21:58:32;;;;;;;10.47;3.50;;;;;;;14.53;100.00;100251.04;5095403;55;1140888;-74
2022/12/31 22:03:38;;;;;;;4.50;3.15;;;;;;;14.54;100.00;100253.20;5027809;56;1142936;-72
2022/12/31 22:08:47;;;;;;;4.37;2.87;;;;;;;14.56;100.00;100240.59;5148530;56;1140912;-68
2022/12/31 22:13:54;;;;;;;6.07;2.93;;;;;;;14.51;100.00;100232.25;5015610;56;1140665;-68
2022/12/31 22:19:00;;;;;;;6.63;3.50;;;;;;;14.60;100.00;100233.50;4978101;57;1140970;-71
2022/12/31 22:24:07;;;;;;;6.85;3.25;;;;;;;14.60;100.00;100233.50;5050371;56;1141118;-71
2022/12/31 22:29:13;;;;;;;9.90;3.62;;;;;;;14.66;100.00;100229.41;5031966;57;1141043;-71
2022/12/31 22:34:19;;;;;;;10.13;3.93;;;;;;;14.70;100.00;100224.09;5070323;56;1141133;-69
2022/12/31 22:39:26;;;;;;;3.63;2.87;;;;;;;14.71;100.00;100222.61;5097703;56;1142866;-70
2022/12/31 22:44:31;;;;;;;7.33;3.30;;;;;;;14.70;100.00;100223.59;5043737;56;1140805;-68
2022/12/31 22:49:37;;;;;;;4.07;2.27;;;;;;;14.74;100.00;100224.97;5111861;56;1141045;-68
2022/12/31 22:54:44;;;;;;;4.27;2.83;;;;;;;14.74;100.00;100232.12;5128578;56;1141016;-71
2022/12/31 22:59:50;;;;;;;3.80;2.93;;;;;;;14.74;100.00;100221.47;5148649;56;1140886;-67
2022/12/31 23:04:56;;;;;;;10.87;5.87;;;;;;;14.72;100.00;100242.92;5090102;56;1140865;-72
2022/12/31 23:26:12;;;;;;;10.53;4.75;;;;;;;14.63;100.00;100239.85;5013273;56;1140905;-72
2022/12/31 23:31:18;;;;;;;5.53;3.80;;;;;;;14.61;100.00;100236.99;4978057;58;1142953;-66
2022/12/31 23:36:24;;;;;;;8.63;4.27;;;;;;;14.60;100.00;100230.00;5016249;57;1141126;-72
2022/12/31 23:41:29;;;;;;;7.33;3.93;;;;;;;14.63;100.00;100243.84;5030571;57;1140920;-68
2022/12/31 23:46:35;;;;;;;7.80;4.13;;;;;;;14.66;100.00;100254.69;4959204;57;1147623;-71
2022/12/31 23:51:41;;;;;;;7.80;5.37;;;;;;;14.68;100.00;100228.73;5011824;57;1140792;-71
2022/12/31 23:56:47;;;;;;;10.87;6.67;;;;;;;14.71;100.00;100227.94;4989326;57;1140837;-73
